Foveran, United Kingdom
Current Conditions -  °F | °C
As of 2:50 PM on Monday 24 Nov 2014 (Local Time) from EGPD Reporting Station
Clear Clear  
Wind Chill: 48°   Ceiling: Unl
Heat Index: 48°   Visibility: 6mi
Dew Point: 41°   Wind: 3mph
Humidity: 76%   Direction: 140°SE
Pressure: 30.12"   Gusts: NA
Location:  57.31°N, 2.04°W
Report Text: EGPD 241450Z 14003KT CAVOK 09/05 Q1020 NOSIG
Loading
Personal Weather Stations






























Interactive Weather Map New forecast layout! Learn more

10-Day Weather Forecast

Advertisements
Track Severe Weather on mobile